createdAt,value
2018-04-25T00:01:45.605Z,3.40
2018-04-25T00:04:13.758Z,5.60
2018-04-25T00:06:41.220Z,3.30
2018-04-25T00:09:08.657Z,5.90
2018-04-25T00:11:36.118Z,4.87
2018-04-25T00:14:03.581Z,3.97
2018-04-25T00:16:31.018Z,4.27
2018-04-25T00:18:58.465Z,5.13
2018-04-25T00:21:26.681Z,7.03
2018-04-25T00:23:54.137Z,5.40
2018-04-25T00:26:21.634Z,4.40
2018-04-25T00:28:49.075Z,4.53
2018-04-25T00:31:16.526Z,3.97
2018-04-25T00:33:43.975Z,5.60
2018-04-25T00:36:11.422Z,4.87
2018-04-25T00:38:38.886Z,4.07
2018-04-25T00:41:06.326Z,3.87
2018-04-25T00:43:33.782Z,4.83
2018-04-25T00:46:01.230Z,5.13
2018-04-25T00:48:28.687Z,6.27
2018-04-25T00:50:56.126Z,6.90
2018-04-25T00:53:23.591Z,5.83
2018-04-25T00:55:51.026Z,4.90
2018-04-25T00:58:19.258Z,6.53
2018-04-25T01:00:47.630Z,4.40
2018-04-25T01:03:15.082Z,4.47
2018-04-25T01:05:42.546Z,5.10
2018-04-25T01:08:09.987Z,4.57
2018-04-25T01:10:37.507Z,4.73
2018-04-25T01:13:05.713Z,4.87
2018-04-25T01:15:33.410Z,7.57
2018-04-25T01:18:00.842Z,5.60
2018-04-25T01:20:28.285Z,5.37
2018-04-25T01:22:55.780Z,8.10
2018-04-25T01:25:23.205Z,8.03
2018-04-25T01:27:56.196Z,4.67
2018-04-25T01:30:24.414Z,4.83
2018-04-25T01:32:51.874Z,5.33
2018-04-25T01:35:19.313Z,6.30
2018-04-25T01:37:58.306Z,5.27
2018-04-25T01:40:25.763Z,6.53
2018-04-25T01:43:12.842Z,4.90
2018-04-25T01:45:43.002Z,5.67
2018-04-25T01:48:14.122Z,5.10
2018-04-25T01:50:41.965Z,6.00
2018-04-25T01:53:21.969Z,6.47
2018-04-25T01:56:01.358Z,5.33
2018-04-25T01:58:41.541Z,5.20
2018-04-25T02:01:19.775Z,6.70
2018-04-25T02:03:56.080Z,4.83
2018-04-25T02:06:23.530Z,4.70
2018-04-25T02:08:50.974Z,5.03
2018-04-25T02:11:18.426Z,5.77
2018-04-25T02:13:45.870Z,7.93
2018-04-25T02:16:13.345Z,5.87
2018-04-25T02:18:40.774Z,5.07
2018-04-25T02:21:08.235Z,7.67
2018-04-25T02:23:35.675Z,6.00
2018-04-25T02:26:03.110Z,4.80
2018-04-25T02:28:31.330Z,5.20
2018-04-25T02:30:58.778Z,6.47
2018-04-25T02:33:26.262Z,7.03
2018-04-25T02:35:53.701Z,5.60
2018-04-25T02:38:21.166Z,5.97
2018-04-25T02:40:48.967Z,5.40
2018-04-25T02:43:17.190Z,6.23
2018-04-25T02:45:44.637Z,5.10
2018-04-25T02:48:12.079Z,6.43
2018-04-25T02:50:39.534Z,7.03
2018-04-25T02:53:06.990Z,12.50
2018-04-25T02:55:34.446Z,5.60
2018-04-25T02:58:02.286Z,6.00
2018-04-25T03:00:29.739Z,5.63
2018-04-25T03:02:57.974Z,6.63
2018-04-25T03:05:25.418Z,10.00
2018-04-25T03:07:52.881Z,5.90
2018-04-25T03:10:20.327Z,7.90
2018-04-25T03:12:47.763Z,6.10
2018-04-25T03:15:15.988Z,5.80
2018-04-25T03:17:43.457Z,7.30
2018-04-25T03:20:10.889Z,5.40
2018-04-25T03:22:38.377Z,5.27
2018-04-25T03:25:05.805Z,6.13
2018-04-25T03:27:33.254Z,9.00
2018-04-25T03:30:00.678Z,6.83
2018-04-25T03:32:28.897Z,7.03
2018-04-25T03:34:56.345Z,6.70
2018-04-25T03:37:23.800Z,5.63
2018-04-25T03:39:51.252Z,5.30
2018-04-25T03:42:18.693Z,5.93
2018-04-25T03:44:46.150Z,6.20
2018-04-25T03:47:13.594Z,5.93
2018-04-25T03:49:41.486Z,5.90
2018-04-25T03:52:08.943Z,9.00
2018-04-25T03:54:36.434Z,8.93
2018-04-25T03:57:03.890Z,7.67
2018-04-25T03:59:31.370Z,6.33
2018-04-25T04:01:58.852Z,4.93
2018-04-25T04:04:27.065Z,6.00
2018-04-25T04:06:54.514Z,6.93
2018-04-25T04:09:21.962Z,6.17
2018-04-25T04:11:49.404Z,5.83
2018-04-25T04:14:16.855Z,6.67
2018-04-25T04:16:44.294Z,5.87
2018-04-25T04:19:12.513Z,9.97
2018-04-25T04:21:39.974Z,6.07
2018-04-25T04:24:07.419Z,6.20
2018-04-25T04:26:34.862Z,5.90
2018-04-25T04:29:02.313Z,6.30
2018-04-25T04:31:30.637Z,6.20
2018-04-25T04:33:58.090Z,5.10
2018-04-25T04:36:25.538Z,6.00
2018-04-25T04:38:53.961Z,6.97
2018-04-25T04:41:21.422Z,5.43
2018-04-25T04:43:48.874Z,7.83
2018-04-25T04:46:16.318Z,6.73
2018-04-25T04:48:43.761Z,10.30
2018-04-25T04:51:11.218Z,6.30
2018-04-25T04:53:38.658Z,9.23
2018-04-25T04:56:06.113Z,8.03
2018-04-25T04:58:33.553Z,5.20
2018-04-25T05:01:00.997Z,5.70
2018-04-25T05:03:28.446Z,5.83
2018-04-25T05:05:56.910Z,6.40
2018-04-25T05:08:25.258Z,5.70
2018-04-25T05:10:52.613Z,5.20
2018-04-25T05:13:20.070Z,6.73
2018-04-25T05:15:47.514Z,9.73
2018-04-25T05:18:14.982Z,6.13
2018-04-25T05:20:42.435Z,6.57
2018-04-25T05:23:09.875Z,7.43
2018-04-25T05:25:37.362Z,5.77
2018-04-25T05:28:04.802Z,8.13
2018-04-25T05:30:32.259Z,8.40
2018-04-25T05:32:59.706Z,8.03
2018-04-25T05:35:27.158Z,6.77
2018-04-25T05:37:54.610Z,4.70
2018-04-25T05:40:22.055Z,5.67
2018-04-25T05:42:49.502Z,7.90
2018-04-25T05:45:16.946Z,5.60
2018-04-25T05:47:45.166Z,9.57
2018-04-25T05:50:12.615Z,7.67
2018-04-25T05:52:40.082Z,6.53
2018-04-25T05:55:07.526Z,5.77
2018-04-25T05:57:34.985Z,5.53
2018-04-25T06:00:03.177Z,5.00
2018-04-25T06:02:30.637Z,5.80
2018-04-25T06:04:58.093Z,6.80
2018-04-25T06:07:25.538Z,6.50
2018-04-25T06:09:52.987Z,6.10
2018-04-25T06:12:20.514Z,6.20
2018-04-25T06:14:47.914Z,6.30
2018-04-25T06:17:15.355Z,7.10
2018-04-25T06:19:42.814Z,6.40
2018-04-25T06:22:10.275Z,7.03
2018-04-25T06:24:37.726Z,6.47
2018-04-25T06:27:05.181Z,7.00
2018-04-25T06:29:32.618Z,8.70
2018-04-25T06:32:00.829Z,6.50
2018-04-25T06:34:28.271Z,5.53
2018-04-25T06:36:56.009Z,6.40
2018-04-25T06:39:24.232Z,5.83
2018-04-25T06:41:51.657Z,8.93
2018-04-25T06:44:19.126Z,10.20
2018-04-25T06:46:46.583Z,8.57
2018-04-25T06:49:14.021Z,12.77
2018-04-25T06:51:41.935Z,7.13
2018-04-25T06:54:09.333Z,7.27
2018-04-25T06:56:36.773Z,7.17
2018-04-25T06:59:04.999Z,7.93
2018-04-25T07:01:32.450Z,7.07
2018-04-25T07:03:59.889Z,7.93
2018-04-25T07:06:27.338Z,7.80
2018-04-25T07:08:55.558Z,7.53
2018-04-25T07:11:23.000Z,7.70
2018-04-25T07:13:50.453Z,8.97
2018-04-25T07:16:17.905Z,6.30
2018-04-25T07:18:45.354Z,8.30
2018-04-25T07:21:12.876Z,8.30
2018-04-25T07:23:40.322Z,7.27
2018-04-25T07:26:07.761Z,7.97
2018-04-25T07:28:35.218Z,8.33
2018-04-25T07:31:02.661Z,7.30
2018-04-25T07:33:30.106Z,8.40
2018-04-25T07:35:57.558Z,8.50
2018-04-25T07:38:25.047Z,9.07
2018-04-25T07:40:52.498Z,7.00
2018-04-25T07:43:19.950Z,8.33
2018-04-25T07:45:47.416Z,8.43
2018-04-25T07:48:14.865Z,10.17
2018-04-25T07:50:42.310Z,9.47
2018-04-25T07:53:09.789Z,7.87
2018-04-25T07:55:37.230Z,9.63
2018-04-25T07:58:04.690Z,10.17
2018-04-25T08:00:32.133Z,7.60
2018-04-25T08:02:59.584Z,9.50
2018-04-25T08:05:27.625Z,9.20
2018-04-25T08:07:55.833Z,11.07
2018-04-25T08:10:23.322Z,7.10
2018-04-25T08:13:03.270Z,6.90
2018-04-25T08:15:42.701Z,7.17
2018-04-25T08:18:22.974Z,6.80
2018-04-25T08:21:07.185Z,7.63
2018-04-25T08:23:34.645Z,7.83
2018-04-25T08:26:03.154Z,6.90
2018-04-25T08:28:30.610Z,6.40
2018-04-25T08:30:58.064Z,6.33
2018-04-25T08:33:25.559Z,9.50
2018-04-25T08:35:52.965Z,7.00
2018-04-25T08:38:20.410Z,5.83
2018-04-25T08:40:48.814Z,4.90
2018-04-25T08:43:16.266Z,6.43
2018-04-25T08:45:43.720Z,6.00
2018-04-25T08:48:11.163Z,9.67
2018-04-25T08:50:38.611Z,5.53
2018-04-25T08:53:06.049Z,6.70
2018-04-25T08:55:34.257Z,5.17
2018-04-25T08:58:01.726Z,8.40
2018-04-25T09:00:29.198Z,4.73
2018-04-25T09:02:56.670Z,6.20
2018-04-25T09:05:24.106Z,5.33
2018-04-25T09:07:51.546Z,4.73
2018-04-25T09:10:19.006Z,3.93
2018-04-25T09:12:46.462Z,3.87
2018-04-25T09:15:14.146Z,3.63
2018-04-25T09:17:41.586Z,5.20
2018-04-25T09:20:09.033Z,4.37
2018-04-25T09:22:36.501Z,4.93
2018-04-25T09:25:04.553Z,5.20
2018-04-25T09:27:31.993Z,6.07
2018-04-25T09:29:59.429Z,4.43
2018-04-25T09:32:27.646Z,4.80
2018-04-25T09:34:55.443Z,3.63
2018-04-25T09:37:22.881Z,5.50
2018-04-25T09:39:50.346Z,5.23
2018-04-25T09:42:17.777Z,3.47
2018-04-25T09:44:45.224Z,3.43
2018-04-25T09:47:12.671Z,4.03
2018-04-25T09:49:40.109Z,3.23
2018-04-25T09:52:08.326Z,4.73
2018-04-25T09:54:35.801Z,3.07
2018-04-25T09:57:03.237Z,3.63
2018-04-25T09:59:30.689Z,4.97
2018-04-25T10:02:02.972Z,5.23
2018-04-25T10:04:30.875Z,3.60
2018-04-25T10:06:58.334Z,2.70
2018-04-25T10:09:25.783Z,3.20
2018-04-25T10:11:53.230Z,4.50
2018-04-25T10:14:21.618Z,3.77
2018-04-25T10:16:49.621Z,3.67
2018-04-25T10:19:17.842Z,5.10
2018-04-25T10:21:45.297Z,4.00
2018-04-25T10:24:12.775Z,3.03
2018-04-25T10:26:40.199Z,3.30
2018-04-25T10:29:07.643Z,3.17
2018-04-25T10:31:35.090Z,2.83
2018-04-25T10:34:02.530Z,2.73
2018-04-25T10:36:30.757Z,3.23
2018-04-25T10:38:58.247Z,3.13
2018-04-25T10:41:25.991Z,3.50
2018-04-25T10:43:53.434Z,2.77
2018-04-25T10:46:20.873Z,3.50
2018-04-25T10:48:48.330Z,2.80
2018-04-25T10:51:16.014Z,2.63
2018-04-25T10:53:43.474Z,4.93
2018-04-25T10:56:10.920Z,2.93
2018-04-25T10:58:38.361Z,3.50
2018-04-25T11:01:05.818Z,3.00
2018-04-25T11:03:33.254Z,3.00
2018-04-25T11:06:00.708Z,5.83
2018-04-25T11:08:28.923Z,3.33
2018-04-25T11:10:56.386Z,3.37
2018-04-25T11:13:23.837Z,3.10
2018-04-25T11:15:51.286Z,5.60
2018-04-25T11:18:18.730Z,5.93
2018-04-25T11:20:46.173Z,9.30
2018-04-25T11:23:13.630Z,3.60
2018-04-25T11:25:41.065Z,4.83
2018-04-25T11:28:09.841Z,5.20
2018-04-25T11:30:37.277Z,6.73
2018-04-25T11:33:04.721Z,7.43
2018-04-25T11:35:32.178Z,6.23
2018-04-25T11:37:59.631Z,5.03
2018-04-25T11:40:27.102Z,6.57
2018-04-25T11:42:54.538Z,6.83
2018-04-25T11:45:21.985Z,8.17
2018-04-25T11:47:49.446Z,4.73
2018-04-25T11:50:16.890Z,6.30
2018-04-25T11:52:44.360Z,4.60
2018-04-25T11:55:11.797Z,5.30
2018-04-25T11:57:39.238Z,4.37
2018-04-25T12:00:07.462Z,4.10
2018-04-25T12:02:34.926Z,6.80
2018-04-25T12:05:02.387Z,2.60
2018-04-25T12:07:29.830Z,3.00
2018-04-25T12:09:57.294Z,3.13
2018-04-25T12:12:24.729Z,3.30
2018-04-25T12:14:52.198Z,2.83
2018-04-25T12:17:20.161Z,3.10
2018-04-25T12:19:47.612Z,3.40
2018-04-25T12:22:15.075Z,2.57
2018-04-25T12:24:42.503Z,3.00
2018-04-25T12:27:10.749Z,2.47
2018-04-25T12:29:38.185Z,2.77
2018-04-25T12:32:05.630Z,3.67
2018-04-25T12:34:33.081Z,1.87
2018-04-25T12:37:00.542Z,2.10
2018-04-25T12:39:27.985Z,2.10
2018-04-25T12:41:55.467Z,1.67
2018-04-25T12:44:22.938Z,1.50
2018-04-25T12:46:50.380Z,1.43
2018-04-25T12:49:17.825Z,1.67
2018-04-25T12:51:46.118Z,1.53
2018-04-25T12:54:13.561Z,1.40
2018-04-25T12:56:41.007Z,1.53
2018-04-25T12:59:08.474Z,1.73
2018-04-25T13:01:35.920Z,1.70
2018-04-25T13:04:03.374Z,1.77
2018-04-25T13:06:30.838Z,1.77
2018-04-25T13:08:58.370Z,1.67
2018-04-25T13:11:25.744Z,1.43
2018-04-25T13:13:53.270Z,1.10
2018-04-25T13:16:21.702Z,0.97
2018-04-25T13:18:49.153Z,1.07
2018-04-25T13:21:16.614Z,1.50
2018-04-25T13:23:44.062Z,1.00
2018-04-25T13:26:11.509Z,0.80
2018-04-25T13:28:38.949Z,1.30
2018-04-25T13:31:06.412Z,0.70
2018-04-25T13:33:33.850Z,1.10
2018-04-25T13:36:02.631Z,1.07
2018-04-25T13:38:30.074Z,1.10
2018-04-25T13:40:57.518Z,0.80
2018-04-25T13:43:26.500Z,1.00
2018-04-25T13:45:53.953Z,0.60
2018-04-25T13:48:21.408Z,1.60
2018-04-25T13:50:48.845Z,0.80
2018-04-25T13:53:16.306Z,1.00
2018-04-25T13:55:43.796Z,1.40
2018-04-25T13:58:11.287Z,1.47
2018-04-25T14:00:39.506Z,0.90
2018-04-25T14:03:06.949Z,1.67
2018-04-25T14:05:34.393Z,1.23
2018-04-25T14:08:03.349Z,1.40
2018-04-25T14:10:30.794Z,1.13
2018-04-25T14:12:58.299Z,1.87
2018-04-25T14:15:25.698Z,2.27
2018-04-25T14:17:53.146Z,2.33
2018-04-25T14:20:20.602Z,3.30
2018-04-25T14:22:48.721Z,1.67
2018-04-25T14:25:16.966Z,1.30
2018-04-25T14:27:44.426Z,2.00
2018-04-25T14:30:11.925Z,2.53
2018-04-25T14:32:39.314Z,1.63
2018-04-25T14:35:06.774Z,1.43
2018-04-25T14:37:34.216Z,1.93
2018-04-25T14:40:01.671Z,3.23
2018-04-25T14:42:29.113Z,2.43
2018-04-25T14:44:56.558Z,1.27
2018-04-25T14:47:24.774Z,1.00
2018-04-25T14:49:52.218Z,0.80
2018-04-25T14:52:19.709Z,1.17
2018-04-25T14:54:47.146Z,1.53
2018-04-25T14:57:14.586Z,1.17
2018-04-25T14:59:42.034Z,0.90
2018-04-25T15:02:09.479Z,0.70
2018-04-25T15:04:37.687Z,1.20
2018-04-25T15:07:05.145Z,1.03
2018-04-25T15:09:32.597Z,1.50
2018-04-25T15:12:00.048Z,0.93
2018-04-25T15:14:27.502Z,1.30
2018-04-25T15:16:54.954Z,0.70
2018-04-25T15:19:22.394Z,0.90
2018-04-25T15:21:49.849Z,1.57
2018-04-25T15:24:18.069Z,0.80
2018-04-25T15:26:45.506Z,0.80
2018-04-25T15:29:12.951Z,2.33
2018-04-25T15:31:40.393Z,2.33
2018-04-25T15:34:08.085Z,1.07
2018-04-25T15:36:35.534Z,4.13
2018-04-25T15:39:02.991Z,2.87
2018-04-25T15:41:30.449Z,2.10
2018-04-25T15:43:57.901Z,1.40
2018-04-25T15:46:25.390Z,2.43
2018-04-25T15:48:52.855Z,1.03
2018-04-25T15:51:20.301Z,1.00
2018-04-25T15:53:47.746Z,1.27
2018-04-25T15:56:15.202Z,2.90
2018-04-25T15:58:42.886Z,1.93
2018-04-25T16:01:10.352Z,1.33
2018-04-25T16:03:37.798Z,0.90
2018-04-25T16:06:05.226Z,1.10
2018-04-25T16:08:32.684Z,0.83
2018-04-25T16:11:00.210Z,1.00
2018-04-25T16:13:27.598Z,1.43
2018-04-25T16:15:55.043Z,1.37
2018-04-25T16:18:22.486Z,3.07
2018-04-25T16:20:50.706Z,1.43
2018-04-25T16:23:18.551Z,1.00
2018-04-25T16:25:46.021Z,1.43
2018-04-25T16:28:13.478Z,1.60
2018-04-25T16:30:41.020Z,1.10
2018-04-25T16:33:08.390Z,1.90
2018-04-25T16:35:35.834Z,1.13
2018-04-25T16:38:03.793Z,1.17
2018-04-25T16:40:31.229Z,1.83
2018-04-25T16:42:59.437Z,3.57
2018-04-25T16:45:26.895Z,1.90
2018-04-25T16:47:54.334Z,3.20
2018-04-25T16:50:21.794Z,0.83
2018-04-25T16:52:49.234Z,1.00
2018-04-25T16:55:17.450Z,1.07
2018-04-25T16:57:44.897Z,2.63
2018-04-25T17:00:12.339Z,1.40
2018-04-25T17:02:39.794Z,1.30
2018-04-25T17:05:07.247Z,5.27
2018-04-25T17:07:35.254Z,1.70
2018-04-25T17:10:02.710Z,2.70
2018-04-25T17:12:30.166Z,1.20
2018-04-25T17:14:57.685Z,1.60
2018-04-25T17:17:25.063Z,3.07
2018-04-25T17:19:52.518Z,2.70
2018-04-25T17:22:19.975Z,1.20
2018-04-25T17:24:47.410Z,1.23
2018-04-25T17:27:14.865Z,1.47
2018-04-25T17:29:43.082Z,1.53
2018-04-25T17:32:10.522Z,1.10
2018-04-25T17:34:37.993Z,3.60
2018-04-25T17:37:05.450Z,1.07
2018-04-25T17:39:32.970Z,1.43
2018-04-25T17:42:00.432Z,1.70
2018-04-25T17:44:29.034Z,2.97
2018-04-25T17:46:56.502Z,4.13
2018-04-25T17:49:23.956Z,0.97
2018-04-25T17:51:51.410Z,2.30
2018-04-25T17:54:18.869Z,0.90
2018-04-25T17:56:46.306Z,1.20
2018-04-25T17:59:13.745Z,0.70
2018-04-25T18:01:41.965Z,1.83
2018-04-25T18:04:09.434Z,1.00
2018-04-25T18:06:37.198Z,3.30
2018-04-25T18:09:04.661Z,3.23
2018-04-25T18:11:32.583Z,0.80
2018-04-25T18:14:00.026Z,2.40
2018-04-25T18:16:28.242Z,1.37
2018-04-25T18:18:55.787Z,2.07
2018-04-25T18:21:23.283Z,1.10
2018-04-25T18:23:50.727Z,1.00
2018-04-25T18:26:18.177Z,2.77
2018-04-25T18:28:45.625Z,1.20
2018-04-25T18:31:13.202Z,4.10
2018-04-25T18:33:40.906Z,1.57
2018-04-25T18:36:09.118Z,1.53
2018-04-25T18:38:36.571Z,0.90
2018-04-25T18:41:04.026Z,1.53
2018-04-25T18:43:31.486Z,1.07
2018-04-25T18:45:58.925Z,1.90
2018-04-25T18:48:26.377Z,1.43
2018-04-25T18:50:53.814Z,2.03
2018-04-25T18:53:22.033Z,1.17
2018-04-25T18:55:49.486Z,1.37
2018-04-25T18:58:16.942Z,1.27
2018-04-25T19:00:45.249Z,1.80
2018-04-25T19:03:12.762Z,1.30
2018-04-25T19:05:40.505Z,1.03
2018-04-25T19:08:08.046Z,1.27
2018-04-25T19:10:35.495Z,1.20
2018-04-25T19:13:02.983Z,1.30
2018-04-25T19:15:31.215Z,1.47
2018-04-25T19:17:59.054Z,1.50
2018-04-25T19:20:27.162Z,2.47
2018-04-25T19:22:54.605Z,2.40
2018-04-25T19:25:22.073Z,5.50
2018-04-25T19:27:49.517Z,4.37
2018-04-25T19:30:16.970Z,3.73
2018-04-25T19:32:44.820Z,2.40
2018-04-25T19:35:12.294Z,2.00
2018-04-25T19:37:40.451Z,1.67
2018-04-25T19:40:07.933Z,2.10
2018-04-25T19:42:35.394Z,1.50
2018-04-25T19:45:03.472Z,1.40
2018-04-25T19:47:31.050Z,2.73
2018-04-25T19:49:58.493Z,2.60
2018-04-25T19:52:26.021Z,2.00
2018-04-25T19:54:53.468Z,1.30
2018-04-25T19:57:20.938Z,1.40
2018-04-25T19:59:48.400Z,5.87
2018-04-25T20:02:15.853Z,1.20
2018-04-25T20:04:43.301Z,1.53
2018-04-25T20:07:10.754Z,1.47
2018-04-25T20:09:38.216Z,1.17
2018-04-25T20:12:06.897Z,1.37
2018-04-25T20:14:34.763Z,1.53
2018-04-25T20:17:02.596Z,4.47
2018-04-25T20:19:30.816Z,2.10
2018-04-25T20:21:58.259Z,1.43
2018-04-25T20:24:25.790Z,1.40
2018-04-25T20:26:54.011Z,1.73
2018-04-25T20:29:21.449Z,5.77
2018-04-25T20:31:48.921Z,3.23
2018-04-25T20:34:16.364Z,1.30
2018-04-25T20:36:43.805Z,2.37
2018-04-25T20:39:11.286Z,1.13
2018-04-25T20:41:38.710Z,1.03
2018-04-25T20:44:06.165Z,0.80
2018-04-25T20:46:34.374Z,1.40
2018-04-25T20:49:01.826Z,3.23
2018-04-25T20:51:29.261Z,2.00
2018-04-25T20:53:56.716Z,1.07
2018-04-25T20:56:24.922Z,1.10
2018-04-25T20:58:52.676Z,2.03
2018-04-25T21:01:20.146Z,1.20
2018-04-25T21:03:47.897Z,3.40
2018-04-25T21:06:15.383Z,1.23
2018-04-25T21:08:42.827Z,1.30
2018-04-25T21:11:10.313Z,1.80
2018-04-25T21:13:38.441Z,1.50
2018-04-25T21:16:05.918Z,2.00
2018-04-25T21:18:33.358Z,1.10
2018-04-25T21:21:00.912Z,2.07
2018-04-25T21:23:28.365Z,2.27
2018-04-25T21:25:55.827Z,1.50
2018-04-25T21:28:23.285Z,5.13
2018-04-25T21:30:50.736Z,1.60
2018-04-25T21:33:18.185Z,2.47
2018-04-25T21:35:45.626Z,1.47
2018-04-25T21:38:13.841Z,1.80
2018-04-25T21:40:41.287Z,4.00
2018-04-25T21:43:09.650Z,1.33
2018-04-25T21:45:37.091Z,1.87
2018-04-25T21:48:05.638Z,1.73
2018-04-25T21:50:33.077Z,2.50
2018-04-25T21:53:00.523Z,1.30
2018-04-25T21:55:28.395Z,1.70
2018-04-25T21:57:55.839Z,0.80
2018-04-25T22:00:23.282Z,1.23
2018-04-25T22:02:50.735Z,1.07
2018-04-25T22:05:18.182Z,2.33
2018-04-25T22:07:46.399Z,1.80
2018-04-25T22:10:13.866Z,1.50
2018-04-25T22:12:41.323Z,2.03
2018-04-25T22:15:08.762Z,1.10
2018-04-25T22:17:36.214Z,2.07
2018-04-25T22:20:03.665Z,1.60
2018-04-25T22:22:31.118Z,1.63
2018-04-25T22:24:58.562Z,2.90
2018-04-25T22:27:26.006Z,1.03
2018-04-25T22:29:54.214Z,1.40
2018-04-25T22:32:21.666Z,1.27
2018-04-25T22:34:49.106Z,1.17
2018-04-25T22:37:17.030Z,1.83
2018-04-25T22:39:44.478Z,1.30
2018-04-25T22:42:11.956Z,1.30
2018-04-25T22:44:39.390Z,1.70
2018-04-25T22:47:07.194Z,1.77
2018-04-25T22:49:35.419Z,1.00
2018-04-25T22:52:02.866Z,1.20
2018-04-25T22:54:30.309Z,1.13
2018-04-25T22:56:57.758Z,1.60
2018-04-25T22:59:25.962Z,1.80
2018-04-25T23:01:53.438Z,2.10
2018-04-25T23:04:21.201Z,2.87
2018-04-25T23:06:48.654Z,1.70
2018-04-25T23:09:16.098Z,1.00
2018-04-25T23:11:43.545Z,1.20
2018-04-25T23:14:10.982Z,0.80
2018-04-25T23:16:38.430Z,1.10
2018-04-25T23:19:06.632Z,0.83
2018-04-25T23:21:34.065Z,3.40
2018-04-25T23:24:01.511Z,2.67
2018-04-25T23:26:29.718Z,0.97
2018-04-25T23:28:57.175Z,4.30
2018-04-25T23:31:24.622Z,1.07
2018-04-25T23:33:52.615Z,1.13
2018-04-25T23:36:20.062Z,6.87
2018-04-25T23:38:47.502Z,1.13
2018-04-25T23:41:14.954Z,1.33
2018-04-25T23:43:42.398Z,1.90
2018-04-25T23:46:10.614Z,1.53
2018-04-25T23:48:38.049Z,0.50
2018-04-25T23:51:05.490Z,1.60
2018-04-25T23:53:33.695Z,0.83
2018-04-25T23:56:01.146Z,0.80
2018-04-25T23:58:29.183Z,1.20
